createdAt,value
2022-11-17T00:01:45.022Z,11.96
2022-11-17T00:04:14.854Z,11.89
2022-11-17T00:06:43.838Z,11.83
2022-11-17T00:09:17.531Z,11.80
2022-11-17T00:11:59.799Z,11.73
2022-11-17T00:14:33.908Z,11.70
2022-11-17T00:17:03.481Z,11.65
2022-11-17T00:19:50.693Z,11.69
2022-11-17T00:22:19.192Z,11.68
2022-11-17T00:24:49.034Z,11.71
2022-11-17T00:27:17.816Z,11.72
2022-11-17T00:29:46.055Z,11.74
2022-11-17T00:32:32.476Z,11.72
2022-11-17T00:35:02.616Z,11.73
2022-11-17T00:37:34.333Z,11.72
2022-11-17T00:40:02.969Z,11.70
2022-11-17T00:42:31.215Z,11.67
2022-11-17T00:44:59.388Z,11.63
2022-11-17T00:47:27.933Z,11.58
2022-11-17T00:49:56.136Z,11.54
2022-11-17T00:52:25.998Z,11.53
2022-11-17T00:54:54.283Z,11.54
2022-11-17T00:57:22.469Z,11.54
2022-11-17T00:59:50.658Z,11.57
2022-11-17T01:02:18.904Z,11.64
2022-11-17T01:04:47.402Z,11.68
2022-11-17T01:07:15.654Z,11.71
2022-11-17T01:09:45.398Z,11.75
2022-11-17T01:12:13.979Z,11.77
2022-11-17T01:14:42.196Z,11.83
2022-11-17T01:17:10.726Z,11.85
2022-11-17T01:19:38.923Z,11.87
2022-11-17T01:22:07.099Z,11.85
2022-11-17T01:24:35.305Z,11.90
2022-11-17T01:27:05.177Z,11.96
2022-11-17T01:29:33.573Z,11.98
2022-11-17T01:32:01.759Z,11.99
2022-11-17T01:34:30.001Z,12.00
2022-11-17T01:37:15.590Z,11.98
2022-11-17T01:39:44.190Z,11.91
2022-11-17T01:42:16.724Z,11.87
2022-11-17T01:44:59.867Z,11.83
2022-11-17T01:47:44.359Z,11.91
2022-11-17T01:50:22.480Z,11.93
2022-11-17T01:52:52.593Z,11.97
2022-11-17T01:55:23.416Z,12.01
2022-11-17T01:57:57.905Z,12.08
2022-11-17T02:00:28.118Z,12.14
2022-11-17T02:02:57.809Z,12.17
2022-11-17T02:05:36.874Z,12.17
2022-11-17T02:08:07.969Z,12.14
2022-11-17T02:10:38.442Z,12.15
2022-11-17T02:13:09.137Z,12.15
2022-11-17T02:15:37.981Z,12.12
2022-11-17T02:18:06.940Z,12.17
2022-11-17T02:20:44.800Z,12.16
2022-11-17T02:23:36.684Z,12.14
2022-11-17T02:26:47.830Z,12.12
2022-11-17T02:29:23.549Z,12.11
2022-11-17T02:31:58.274Z,12.14
2022-11-17T02:34:32.622Z,12.12
2022-11-17T02:37:08.956Z,12.13
2022-11-17T02:39:42.560Z,12.15
2022-11-17T02:42:15.516Z,12.09
2022-11-17T02:44:49.977Z,12.12
2022-11-17T02:47:23.669Z,12.12
2022-11-17T02:49:57.579Z,12.11
2022-11-17T02:52:27.594Z,12.12
2022-11-17T02:55:00.922Z,12.14
2022-11-17T02:57:30.318Z,12.11
2022-11-17T03:00:02.726Z,12.13
2022-11-17T03:02:47.231Z,12.18
2022-11-17T03:05:20.956Z,12.19
2022-11-17T03:08:03.096Z,12.27
2022-11-17T03:10:46.267Z,12.29
2022-11-17T03:13:20.100Z,12.33
2022-11-17T03:15:55.714Z,12.40
2022-11-17T03:18:30.896Z,12.43
2022-11-17T03:21:11.649Z,12.47
2022-11-17T03:23:47.090Z,12.50
2022-11-17T03:26:18.310Z,12.57
2022-11-17T03:28:48.202Z,12.60
2022-11-17T03:31:21.971Z,12.62
2022-11-17T03:33:51.582Z,12.63
2022-11-17T03:36:25.558Z,12.60
2022-11-17T03:39:00.141Z,12.58
2022-11-17T03:41:35.012Z,12.61
2022-11-17T03:44:06.294Z,12.48
2022-11-17T03:46:39.691Z,12.44
2022-11-17T03:49:17.926Z,12.37
2022-11-17T03:51:46.709Z,12.30
2022-11-17T03:54:16.951Z,12.31
2022-11-17T03:56:55.562Z,12.30
2022-11-17T03:59:30.733Z,12.35
2022-11-17T04:02:00.472Z,12.39
2022-11-17T04:04:49.235Z,12.45
2022-11-17T04:07:17.448Z,12.39
2022-11-17T04:09:45.671Z,12.35
2022-11-17T04:12:32.179Z,12.37
2022-11-17T04:15:17.996Z,12.29
2022-11-17T04:17:48.283Z,12.22
2022-11-17T04:20:17.081Z,12.22
2022-11-17T04:22:46.236Z,12.13
2022-11-17T04:25:35.937Z,12.13
2022-11-17T04:28:22.708Z,12.17
2022-11-17T04:30:51.034Z,12.16
2022-11-17T04:33:20.587Z,12.06
2022-11-17T04:35:51.480Z,12.10
2022-11-17T04:38:20.292Z,12.09
2022-11-17T04:41:02.289Z,12.02
2022-11-17T04:43:30.556Z,11.96
2022-11-17T04:46:00.335Z,11.95
2022-11-17T04:48:30.480Z,11.91
2022-11-17T04:50:58.785Z,11.88
2022-11-17T04:53:26.920Z,11.86
2022-11-17T04:55:55.124Z,11.81
2022-11-17T04:58:23.295Z,11.77
2022-11-17T05:00:51.729Z,11.78
2022-11-17T05:03:21.609Z,11.72
2022-11-17T05:05:51.324Z,11.86
2022-11-17T05:08:19.530Z,11.96
2022-11-17T05:11:06.043Z,12.04
2022-11-17T05:13:34.585Z,12.08
2022-11-17T05:16:20.664Z,12.16
2022-11-17T05:18:48.862Z,12.18
2022-11-17T05:21:18.441Z,12.19
2022-11-17T05:23:55.012Z,12.14
2022-11-17T05:26:25.017Z,12.10
2022-11-17T05:28:53.976Z,12.09
2022-11-17T05:31:22.380Z,12.08
2022-11-17T05:33:50.554Z,12.05
2022-11-17T05:36:20.967Z,12.03
2022-11-17T05:38:50.611Z,12.04
2022-11-17T05:41:19.425Z,12.06
2022-11-17T05:43:47.856Z,11.95
2022-11-17T05:46:16.425Z,11.88
2022-11-17T05:48:45.228Z,11.82
2022-11-17T05:51:15.172Z,11.73
2022-11-17T05:53:45.104Z,11.65
2022-11-17T05:56:35.408Z,11.58
2022-11-17T05:59:13.301Z,11.60
2022-11-17T06:01:45.086Z,11.55
2022-11-17T06:04:17.229Z,11.61
2022-11-17T06:06:46.277Z,11.58
2022-11-17T06:09:17.050Z,11.59
2022-11-17T06:11:45.320Z,11.61
2022-11-17T06:14:15.153Z,11.64
2022-11-17T06:16:47.437Z,11.62
2022-11-17T06:19:20.660Z,11.72
2022-11-17T06:22:10.984Z,11.76
2022-11-17T06:24:40.637Z,11.81
2022-11-17T06:27:09.109Z,11.87
2022-11-17T06:29:43.656Z,11.87
2022-11-17T06:32:13.341Z,11.81
2022-11-17T06:34:41.806Z,11.78
2022-11-17T06:37:11.350Z,11.79
2022-11-17T06:39:41.245Z,11.88
2022-11-17T06:42:09.704Z,11.89
2022-11-17T06:44:37.939Z,11.98
2022-11-17T06:47:12.504Z,12.02
2022-11-17T06:49:41.009Z,12.06
2022-11-17T06:52:11.176Z,12.05
2022-11-17T06:54:40.880Z,12.01
2022-11-17T06:57:09.412Z,11.93
2022-11-17T06:59:40.758Z,11.87
2022-11-17T07:02:09.216Z,11.86
2022-11-17T07:04:37.974Z,11.79
2022-11-17T07:07:06.386Z,11.74
2022-11-17T07:09:34.610Z,11.70
2022-11-17T07:12:04.205Z,11.65
2022-11-17T07:14:33.553Z,11.62
2022-11-17T07:17:01.680Z,11.61
2022-11-17T07:19:29.886Z,11.61
2022-11-17T07:21:58.104Z,11.63
2022-11-17T07:24:26.358Z,11.64
2022-11-17T07:26:54.587Z,11.64
2022-11-17T07:29:24.118Z,11.65
2022-11-17T07:31:52.334Z,11.65
2022-11-17T07:34:20.557Z,11.63
2022-11-17T07:36:48.711Z,11.62
2022-11-17T07:39:21.423Z,11.62
2022-11-17T07:41:50.135Z,11.61
2022-11-17T07:44:18.277Z,11.59
2022-11-17T07:46:47.844Z,11.63
2022-11-17T07:49:16.416Z,11.71
2022-11-17T07:51:44.600Z,11.78
2022-11-17T07:54:13.172Z,11.82
2022-11-17T07:56:41.327Z,11.84
2022-11-17T07:59:11.308Z,11.84
2022-11-17T08:01:39.974Z,11.90
2022-11-17T08:04:11.742Z,12.00
2022-11-17T08:06:39.947Z,12.14
2022-11-17T08:09:10.818Z,12.41
2022-11-17T08:11:39.235Z,12.98
2022-11-17T08:14:08.033Z,13.49
2022-11-17T08:16:36.167Z,13.59
2022-11-17T08:19:06.301Z,13.44
2022-11-17T08:21:37.734Z,13.32
2022-11-17T08:24:07.155Z,13.19
2022-11-17T08:26:35.294Z,13.06
2022-11-17T08:29:03.498Z,12.95
2022-11-17T08:31:31.767Z,12.85
2022-11-17T08:34:00.283Z,12.79
2022-11-17T08:36:28.396Z,12.74
2022-11-17T08:38:58.274Z,12.72
2022-11-17T08:41:26.715Z,12.70
2022-11-17T08:43:55.260Z,12.73
2022-11-17T08:46:23.526Z,12.81
2022-11-17T08:48:56.811Z,12.92
2022-11-17T08:51:25.497Z,13.04
2022-11-17T08:53:55.096Z,13.14
2022-11-17T08:56:25.474Z,13.18
2022-11-17T08:58:53.745Z,13.18
2022-11-17T09:01:21.972Z,13.21
2022-11-17T09:03:50.615Z,13.18
2022-11-17T09:06:20.141Z,13.11
2022-11-17T09:08:48.802Z,13.06
2022-11-17T09:11:17.244Z,13.01
2022-11-17T09:13:47.254Z,13.05
2022-11-17T09:16:17.080Z,13.17
2022-11-17T09:18:46.174Z,14.63
2022-11-17T09:21:17.163Z,16.18
2022-11-17T09:23:46.429Z,16.33
2022-11-17T09:26:16.238Z,15.87
2022-11-17T09:28:46.862Z,15.20
2022-11-17T09:31:18.878Z,14.71
2022-11-17T09:33:47.919Z,14.40
2022-11-17T09:36:17.250Z,14.09
2022-11-17T09:38:47.073Z,13.86
2022-11-17T09:41:27.696Z,13.60
2022-11-17T09:44:04.134Z,13.38
2022-11-17T09:46:45.790Z,13.23
2022-11-17T09:49:29.298Z,13.16
2022-11-17T09:52:01.689Z,14.21
2022-11-17T09:54:34.179Z,15.37
2022-11-17T09:57:03.129Z,16.63
2022-11-17T09:59:34.064Z,17.71
2022-11-17T10:02:02.422Z,18.64
2022-11-17T10:04:31.209Z,19.51
2022-11-17T10:07:00.054Z,19.88
2022-11-17T10:09:37.809Z,20.08
2022-11-17T10:12:16.535Z,20.58
2022-11-17T10:14:48.593Z,20.70
2022-11-17T10:17:17.151Z,20.76
2022-11-17T10:19:46.354Z,21.20
2022-11-17T10:22:21.567Z,20.59
2022-11-17T10:24:52.270Z,19.32
2022-11-17T10:27:24.088Z,18.15
2022-11-17T10:30:04.613Z,17.33
2022-11-17T10:32:36.244Z,17.95
2022-11-17T10:35:25.743Z,18.60
2022-11-17T10:37:58.718Z,19.18
2022-11-17T10:40:28.289Z,19.36
2022-11-17T10:43:04.064Z,18.74
2022-11-17T10:45:34.620Z,18.07
2022-11-17T10:48:21.581Z,17.43
2022-11-17T10:50:56.808Z,16.78
2022-11-17T10:53:38.257Z,16.19
2022-11-17T10:56:15.831Z,15.80
2022-11-17T10:59:13.814Z,15.25
2022-11-17T11:01:45.227Z,14.87
2022-11-17T11:04:30.613Z,14.56
2022-11-17T11:07:10.370Z,14.34
2022-11-17T11:09:44.016Z,14.12
2022-11-17T11:12:16.169Z,13.97
2022-11-17T11:14:50.055Z,13.88
2022-11-17T11:17:20.764Z,13.82
2022-11-17T11:19:54.176Z,13.80
2022-11-17T11:22:32.841Z,13.81
2022-11-17T11:25:11.987Z,13.86
2022-11-17T11:27:57.408Z,13.80
2022-11-17T11:30:26.255Z,13.75
2022-11-17T11:33:13.717Z,13.75
2022-11-17T11:36:02.175Z,13.73
2022-11-17T11:38:51.275Z,13.71
2022-11-17T11:41:35.699Z,13.76
2022-11-17T11:44:22.206Z,13.90
2022-11-17T11:46:57.057Z,14.12
2022-11-17T11:49:35.442Z,14.32
2022-11-17T11:52:07.309Z,14.42
2022-11-17T11:54:46.310Z,14.47
2022-11-17T11:57:25.570Z,14.48
2022-11-17T12:00:03.556Z,14.55
2022-11-17T12:02:48.898Z,14.63
2022-11-17T12:05:27.699Z,14.67
2022-11-17T12:08:10.370Z,14.62
2022-11-17T12:10:44.171Z,14.52
2022-11-17T12:13:15.777Z,14.48
2022-11-17T12:15:44.308Z,14.42
2022-11-17T12:18:15.656Z,14.39
2022-11-17T12:21:07.160Z,14.28
2022-11-17T12:23:49.320Z,14.29
2022-11-17T12:26:26.631Z,14.24
2022-11-17T12:29:28.081Z,14.21
2022-11-17T12:31:58.052Z,14.24
2022-11-17T12:34:29.122Z,14.31
2022-11-17T12:37:32.780Z,14.28
2022-11-17T12:40:06.428Z,14.28
2022-11-17T12:42:36.032Z,14.24
2022-11-17T12:45:13.299Z,14.18
2022-11-17T12:47:48.109Z,14.13
2022-11-17T12:50:51.193Z,14.03
2022-11-17T12:53:38.260Z,13.94
2022-11-17T12:56:29.158Z,13.85
2022-11-17T12:59:09.072Z,13.83
2022-11-17T13:01:45.284Z,13.80
2022-11-17T13:04:17.780Z,13.74
2022-11-17T13:07:02.881Z,13.55
2022-11-17T13:09:35.357Z,13.45
2022-11-17T13:12:04.361Z,13.31
2022-11-17T13:14:33.928Z,13.36
2022-11-17T13:17:03.561Z,13.39
2022-11-17T13:19:37.879Z,13.42
2022-11-17T13:22:07.810Z,13.49
2022-11-17T13:24:40.656Z,13.54
2022-11-17T13:27:21.633Z,13.50
2022-11-17T13:29:50.316Z,13.54
2022-11-17T13:32:21.483Z,13.52
2022-11-17T13:34:52.714Z,13.45
2022-11-17T13:37:22.902Z,13.43
2022-11-17T13:40:22.149Z,13.42
2022-11-17T13:42:51.445Z,13.45
2022-11-17T13:45:19.688Z,13.59
2022-11-17T13:47:49.306Z,13.70
2022-11-17T13:50:39.606Z,13.83
2022-11-17T13:53:24.619Z,13.88
2022-11-17T13:55:54.727Z,13.92
2022-11-17T13:58:29.832Z,13.90
2022-11-17T14:01:00.203Z,13.84
2022-11-17T14:03:37.862Z,13.66
2022-11-17T14:06:08.526Z,13.53
2022-11-17T14:08:39.344Z,13.42
2022-11-17T14:11:22.836Z,13.38
2022-11-17T14:13:54.108Z,13.29
2022-11-17T14:16:28.404Z,13.31
2022-11-17T14:19:02.296Z,13.32
2022-11-17T14:21:31.453Z,13.30
2022-11-17T14:24:08.487Z,13.31
2022-11-17T14:26:44.561Z,13.32
2022-11-17T14:29:13.720Z,13.39
2022-11-17T14:31:42.280Z,13.65
2022-11-17T14:34:10.580Z,13.99
2022-11-17T14:36:40.508Z,14.11
2022-11-17T14:39:15.675Z,14.08
2022-11-17T14:41:47.093Z,14.21
2022-11-17T14:44:15.356Z,14.29
2022-11-17T14:46:44.234Z,14.24
2022-11-17T14:49:13.128Z,14.09
2022-11-17T14:51:41.982Z,13.89
2022-11-17T14:54:10.322Z,13.70
2022-11-17T14:56:38.661Z,13.47
2022-11-17T14:59:12.291Z,13.26
2022-11-17T15:01:42.775Z,13.16
2022-11-17T15:04:48.361Z,13.16
2022-11-17T15:07:04.270Z,13.15
2022-11-17T15:09:32.846Z,13.16
2022-11-17T15:12:01.277Z,13.19
2022-11-17T15:14:31.237Z,13.23
2022-11-17T15:16:59.562Z,13.27
2022-11-17T15:19:27.715Z,13.29
2022-11-17T15:21:56.019Z,13.32
2022-11-17T15:24:24.619Z,13.31
2022-11-17T15:26:52.845Z,13.26
2022-11-17T15:29:21.432Z,13.15
2022-11-17T15:31:51.107Z,13.09
2022-11-17T15:34:20.624Z,13.01
2022-11-17T15:36:49.100Z,12.95
2022-11-17T15:39:18.474Z,13.00
2022-11-17T15:41:47.130Z,13.04
2022-11-17T15:44:15.834Z,13.12
2022-11-17T15:46:47.345Z,13.13
2022-11-17T15:49:18.236Z,13.11
2022-11-17T15:51:46.737Z,13.15
2022-11-17T15:54:20.329Z,13.13
2022-11-17T15:56:49.571Z,13.07
2022-11-17T15:59:18.080Z,13.04
2022-11-17T16:01:46.984Z,13.01
2022-11-17T16:04:17.532Z,13.01
2022-11-17T16:06:47.197Z,12.95
2022-11-17T16:09:17.463Z,12.88
2022-11-17T16:11:46.237Z,12.78
2022-11-17T16:14:16.005Z,12.74
2022-11-17T16:16:46.851Z,12.63
2022-11-17T16:19:15.658Z,12.62
2022-11-17T16:21:46.099Z,12.56
2022-11-17T16:24:16.137Z,12.51
2022-11-17T16:26:45.659Z,12.48
2022-11-17T16:29:14.232Z,12.43
2022-11-17T16:31:44.457Z,12.39
2022-11-17T16:34:16.529Z,12.41
2022-11-17T16:36:46.836Z,12.37
2022-11-17T16:39:18.090Z,12.30
2022-11-17T16:41:47.522Z,12.24
2022-11-17T16:44:19.482Z,12.17
2022-11-17T16:46:49.895Z,12.13
2022-11-17T16:49:20.100Z,12.12
2022-11-17T16:51:52.641Z,12.11
2022-11-17T16:54:22.493Z,12.12
2022-11-17T16:56:50.932Z,12.10
2022-11-17T16:59:19.695Z,12.05
2022-11-17T17:01:48.056Z,12.01
2022-11-17T17:04:17.333Z,12.01
2022-11-17T17:06:46.037Z,11.99
2022-11-17T17:09:17.963Z,12.03
2022-11-17T17:11:48.030Z,12.06
2022-11-17T17:14:17.217Z,12.04
2022-11-17T17:16:45.721Z,12.07
2022-11-17T17:19:16.054Z,12.14
2022-11-17T17:21:45.708Z,12.16
2022-11-17T17:24:15.665Z,12.18
2022-11-17T17:26:44.275Z,12.10
2022-11-17T17:29:13.903Z,12.12
2022-11-17T17:31:43.586Z,12.10
2022-11-17T17:34:14.090Z,12.10
2022-11-17T17:36:42.349Z,12.07
2022-11-17T17:39:16.913Z,12.01
2022-11-17T17:41:46.228Z,11.99
2022-11-17T17:44:16.722Z,11.95
2022-11-17T17:46:45.179Z,11.92
2022-11-17T17:49:14.312Z,11.87
2022-11-17T17:51:44.527Z,11.91
2022-11-17T17:54:18.620Z,11.89
2022-11-17T17:56:47.544Z,11.92
2022-11-17T17:59:17.252Z,11.96
2022-11-17T18:01:47.852Z,11.99
2022-11-17T18:04:18.070Z,12.00
2022-11-17T18:06:48.135Z,11.96
2022-11-17T18:09:20.757Z,11.95
2022-11-17T18:11:51.143Z,11.91
2022-11-17T18:14:24.541Z,11.94
2022-11-17T18:16:53.639Z,11.97
2022-11-17T18:19:26.946Z,12.01
2022-11-17T18:21:58.166Z,11.98
2022-11-17T18:24:28.438Z,11.99
2022-11-17T18:26:56.941Z,12.03
2022-11-17T18:29:25.319Z,12.04
2022-11-17T18:31:53.514Z,11.97
2022-11-17T18:34:23.373Z,11.90
2022-11-17T18:36:55.667Z,11.77
2022-11-17T18:39:24.660Z,11.69
2022-11-17T18:41:56.358Z,11.63
2022-11-17T18:44:25.843Z,11.62
2022-11-17T18:46:58.246Z,11.53
2022-11-17T18:49:29.619Z,11.51
2022-11-17T18:51:57.906Z,11.49
2022-11-17T18:54:26.177Z,11.39
2022-11-17T18:56:56.342Z,11.40
2022-11-17T18:59:24.599Z,11.36
2022-11-17T19:01:52.899Z,11.37
2022-11-17T19:04:22.307Z,11.42
2022-11-17T19:06:51.056Z,11.39
2022-11-17T19:09:20.882Z,11.40
2022-11-17T19:11:49.764Z,11.43
2022-11-17T19:14:19.935Z,11.42
2022-11-17T19:16:50.450Z,11.43
2022-11-17T19:19:19.533Z,11.40
2022-11-17T19:21:48.110Z,11.47
2022-11-17T19:24:17.191Z,11.45
2022-11-17T19:26:46.069Z,11.46
2022-11-17T19:29:17.487Z,11.49
2022-11-17T19:31:49.709Z,11.52
2022-11-17T19:34:18.283Z,11.50
2022-11-17T19:36:46.607Z,11.51
2022-11-17T19:39:15.618Z,11.47
2022-11-17T19:41:45.096Z,11.43
2022-11-17T19:44:13.800Z,11.34
2022-11-17T19:46:43.351Z,11.40
2022-11-17T19:49:14.138Z,11.43
2022-11-17T19:51:43.016Z,11.42
2022-11-17T19:54:13.409Z,11.41
2022-11-17T19:56:42.255Z,11.40
2022-11-17T19:59:15.609Z,11.35
2022-11-17T20:01:45.350Z,11.34
2022-11-17T20:04:16.367Z,11.33
2022-11-17T20:06:44.641Z,11.34
2022-11-17T20:09:15.231Z,11.37
2022-11-17T20:11:44.577Z,11.41
2022-11-17T20:14:14.489Z,11.48
2022-11-17T20:16:42.735Z,11.56
2022-11-17T20:19:12.201Z,11.66
2022-11-17T20:21:41.737Z,11.73
2022-11-17T20:24:10.302Z,11.78
2022-11-17T20:26:40.917Z,11.85
2022-11-17T20:29:09.295Z,11.82
2022-11-17T20:31:38.107Z,11.83
2022-11-17T20:34:06.859Z,11.91
2022-11-17T20:36:35.999Z,11.98
2022-11-17T20:39:07.567Z,12.02
2022-11-17T20:41:35.998Z,12.00
2022-11-17T20:44:04.949Z,11.99
2022-11-17T20:46:33.201Z,12.02
2022-11-17T20:49:01.244Z,11.99
2022-11-17T20:51:29.338Z,12.03
2022-11-17T20:53:57.549Z,12.05
2022-11-17T20:56:27.500Z,12.10
2022-11-17T20:58:56.067Z,12.08
2022-11-17T21:01:24.476Z,12.10
2022-11-17T21:03:53.194Z,12.01
2022-11-17T21:06:23.448Z,12.00
2022-11-17T21:08:51.759Z,11.92
2022-11-17T21:11:35.519Z,11.90
2022-11-17T21:14:06.153Z,11.82
2022-11-17T21:16:35.024Z,11.82
2022-11-17T21:19:04.215Z,11.84
2022-11-17T21:21:32.450Z,11.84
2022-11-17T21:24:00.772Z,11.86
2022-11-17T21:26:29.649Z,11.92
2022-11-17T21:29:03.205Z,11.95
2022-11-17T21:31:36.319Z,11.91
2022-11-17T21:34:07.233Z,11.87
2022-11-17T21:36:36.912Z,11.82
2022-11-17T21:39:05.824Z,11.78
2022-11-17T21:41:36.285Z,11.73
2022-11-17T21:44:07.079Z,11.70
2022-11-17T21:46:37.215Z,11.67
2022-11-17T21:49:05.552Z,11.68
2022-11-17T21:51:38.841Z,11.71
2022-11-17T21:54:09.846Z,11.75
2022-11-17T21:56:38.572Z,11.78
2022-11-17T21:59:10.696Z,11.76
2022-11-17T22:01:40.967Z,11.75
2022-11-17T22:04:09.294Z,11.80
2022-11-17T22:06:39.578Z,11.89
2022-11-17T22:09:08.163Z,11.89
2022-11-17T22:11:37.306Z,11.89
2022-11-17T22:14:08.999Z,11.87
2022-11-17T22:16:39.658Z,11.70
2022-11-17T22:19:09.143Z,11.70
2022-11-17T22:21:38.306Z,11.71
2022-11-17T22:24:08.272Z,11.74
2022-11-17T22:26:38.378Z,11.71
2022-11-17T22:29:08.245Z,11.71
2022-11-17T22:31:36.734Z,11.78
2022-11-17T22:34:06.614Z,11.86
2022-11-17T22:36:35.390Z,11.92
2022-11-17T22:39:04.060Z,11.98
2022-11-17T22:41:32.516Z,11.95
2022-11-17T22:44:00.724Z,11.84
2022-11-17T22:46:29.939Z,11.80
2022-11-17T22:48:58.271Z,11.76
2022-11-17T22:51:45.700Z,11.77
2022-11-17T22:54:14.193Z,11.75
2022-11-17T22:56:42.399Z,11.74
2022-11-17T22:59:11.215Z,11.74
2022-11-17T23:01:39.959Z,11.73
2022-11-17T23:04:08.848Z,11.81
2022-11-17T23:06:38.731Z,11.85
2022-11-17T23:09:07.118Z,11.77
2022-11-17T23:11:37.994Z,11.74
2022-11-17T23:14:07.944Z,11.65
2022-11-17T23:16:36.827Z,11.60
2022-11-17T23:19:07.296Z,11.59
2022-11-17T23:21:35.885Z,11.61
2022-11-17T23:24:05.910Z,11.63
2022-11-17T23:26:35.891Z,11.62
2022-11-17T23:29:04.097Z,11.69
2022-11-17T23:31:32.286Z,11.70
2022-11-17T23:34:00.590Z,11.73
2022-11-17T23:36:28.886Z,11.75
2022-11-17T23:38:57.662Z,11.88
2022-11-17T23:41:27.425Z,11.89
2022-11-17T23:43:56.211Z,11.94
2022-11-17T23:46:26.412Z,11.97
2022-11-17T23:48:56.321Z,11.86
2022-11-17T23:51:25.939Z,11.84
2022-11-17T23:53:54.947Z,11.86
2022-11-17T23:56:23.718Z,11.82
2022-11-17T23:58:54.018Z,11.79
